createdAt,value
2023-02-21T00:00:07.015Z,13.37
2023-02-21T00:03:00.649Z,13.32
2023-02-21T00:05:48.205Z,13.30
2023-02-21T00:08:36.016Z,13.25
2023-02-21T00:11:23.990Z,13.33
2023-02-21T00:14:11.009Z,13.47
2023-02-21T00:16:57.989Z,13.54
2023-02-21T00:19:46.613Z,13.56
2023-02-21T00:22:33.759Z,13.53
2023-02-21T00:25:20.797Z,13.49
2023-02-21T00:28:08.127Z,13.53
2023-02-21T00:30:55.757Z,13.60
2023-02-21T00:33:42.889Z,13.58
2023-02-21T00:36:35.296Z,13.56
2023-02-21T00:39:22.830Z,13.56
2023-02-21T00:42:09.753Z,13.59
2023-02-21T00:44:56.890Z,13.72
2023-02-21T00:47:43.844Z,13.86
2023-02-21T00:50:31.728Z,13.90
2023-02-21T00:53:19.056Z,13.94
2023-02-21T00:56:05.871Z,13.99
2023-02-21T00:58:52.666Z,13.97
2023-02-21T01:01:39.399Z,13.91
2023-02-21T01:04:26.636Z,13.97
2023-02-21T01:07:14.985Z,14.07
2023-02-21T01:10:02.846Z,14.14
2023-02-21T01:12:51.865Z,14.17
2023-02-21T01:15:39.001Z,14.16
2023-02-21T01:18:26.415Z,14.11
2023-02-21T01:21:14.069Z,14.07
2023-02-21T01:24:02.146Z,14.14
2023-02-21T01:26:49.312Z,14.23
2023-02-21T01:29:37.958Z,14.23
2023-02-21T01:32:25.606Z,14.24
2023-02-21T01:35:12.171Z,14.24
2023-02-21T01:38:00.348Z,14.20
2023-02-21T01:40:47.960Z,14.12
2023-02-21T01:43:40.101Z,14.18
2023-02-21T01:46:34.284Z,14.18
2023-02-21T01:49:30.040Z,14.08
2023-02-21T01:52:16.864Z,13.98
2023-02-21T01:55:06.878Z,13.89
2023-02-21T01:57:53.696Z,13.94
2023-02-21T02:00:40.739Z,13.99
2023-02-21T02:03:30.223Z,13.99
2023-02-21T02:06:19.778Z,13.96
2023-02-21T02:09:06.233Z,13.91
2023-02-21T02:12:25.626Z,13.95
2023-02-21T02:14:58.129Z,14.10
2023-02-21T02:17:45.382Z,14.16
2023-02-21T02:20:44.616Z,14.19
2023-02-21T02:23:45.779Z,14.20
2023-02-21T02:26:20.869Z,14.17
2023-02-21T02:29:16.799Z,14.04
2023-02-21T02:32:11.614Z,14.02
2023-02-21T02:35:08.379Z,14.07
2023-02-21T02:37:56.748Z,14.01
2023-02-21T02:40:41.904Z,13.91
2023-02-21T02:43:17.447Z,13.89
2023-02-21T02:45:49.614Z,13.93
2023-02-21T02:48:33.660Z,13.98
2023-02-21T02:51:03.384Z,14.08
2023-02-21T02:53:32.026Z,14.15
2023-02-21T02:56:05.558Z,14.15
2023-02-21T02:58:50.198Z,14.13
2023-02-21T03:01:24.317Z,14.07
2023-02-21T03:04:08.348Z,14.03
2023-02-21T03:06:48.120Z,14.02
2023-02-21T03:09:25.811Z,14.09
2023-02-21T03:12:09.044Z,14.09
2023-02-21T03:14:42.028Z,14.03
2023-02-21T03:17:12.941Z,13.97
2023-02-21T03:19:41.974Z,13.91
2023-02-21T03:22:12.468Z,13.88
2023-02-21T03:24:41.215Z,13.89
2023-02-21T03:27:09.745Z,14.01
2023-02-21T03:30:13.561Z,14.10
2023-02-21T03:32:46.494Z,14.07
2023-02-21T03:35:16.296Z,14.04
2023-02-21T03:37:47.715Z,14.03
2023-02-21T03:40:18.100Z,13.98
2023-02-21T03:42:51.007Z,13.95
2023-02-21T03:45:19.926Z,13.96
2023-02-21T03:48:04.393Z,14.09
2023-02-21T03:50:33.139Z,14.14
2023-02-21T03:53:01.723Z,14.13
2023-02-21T03:55:30.567Z,14.09
2023-02-21T03:57:59.101Z,14.07
2023-02-21T04:00:27.234Z,14.05
2023-02-21T04:02:56.491Z,14.05
2023-02-21T04:05:34.242Z,14.09
2023-02-21T04:08:02.868Z,14.16
2023-02-21T04:10:33.972Z,14.13
2023-02-21T04:13:07.457Z,14.01
2023-02-21T04:15:40.852Z,13.87
2023-02-21T04:18:09.241Z,13.76
2023-02-21T04:20:39.740Z,13.72
2023-02-21T04:23:11.093Z,13.77
2023-02-21T04:25:39.355Z,13.79
2023-02-21T04:28:15.038Z,13.74
2023-02-21T04:30:43.694Z,13.71
2023-02-21T04:33:13.926Z,13.70
2023-02-21T04:35:42.748Z,13.67
2023-02-21T04:38:23.484Z,13.65
2023-02-21T04:40:51.743Z,13.69
2023-02-21T04:43:21.824Z,13.73
2023-02-21T04:45:50.226Z,13.72
2023-02-21T04:48:19.192Z,13.69
2023-02-21T04:50:47.368Z,13.69
2023-02-21T04:53:15.653Z,13.67
2023-02-21T04:55:43.992Z,13.65
2023-02-21T04:58:12.273Z,13.69
2023-02-21T05:00:40.340Z,13.74
2023-02-21T05:03:08.493Z,13.72
2023-02-21T05:05:39.258Z,13.71
2023-02-21T05:08:07.734Z,13.70
2023-02-21T05:10:45.204Z,13.69
2023-02-21T05:13:14.465Z,13.68
2023-02-21T05:15:45.163Z,13.70
2023-02-21T05:18:14.316Z,13.82
2023-02-21T05:20:42.435Z,13.90
2023-02-21T05:23:13.794Z,13.96
2023-02-21T05:25:42.880Z,14.07
2023-02-21T05:28:11.263Z,14.20
2023-02-21T05:30:39.940Z,14.33
2023-02-21T05:33:08.150Z,14.42
2023-02-21T05:35:36.397Z,14.52
2023-02-21T05:38:06.385Z,14.70
2023-02-21T05:40:35.749Z,14.82
2023-02-21T05:43:10.351Z,14.82
2023-02-21T05:45:39.442Z,14.80
2023-02-21T05:48:07.739Z,14.75
2023-02-21T05:50:36.039Z,14.69
2023-02-21T05:53:04.112Z,14.75
2023-02-21T05:55:32.985Z,14.97
2023-02-21T05:58:01.126Z,15.38
2023-02-21T06:00:30.386Z,15.93
2023-02-21T06:03:03.712Z,16.48
2023-02-21T06:05:33.548Z,16.90
2023-02-21T06:08:03.058Z,17.28
2023-02-21T06:10:32.880Z,17.59
2023-02-21T06:13:01.047Z,17.88
2023-02-21T06:15:29.478Z,18.18
2023-02-21T06:17:58.254Z,18.58
2023-02-21T06:20:36.484Z,19.02
2023-02-21T06:23:05.497Z,19.34
2023-02-21T06:25:34.626Z,19.57
2023-02-21T06:28:05.079Z,19.74
2023-02-21T06:30:34.015Z,19.89
2023-02-21T06:33:03.480Z,19.98
2023-02-21T06:35:32.932Z,19.89
2023-02-21T06:38:02.559Z,19.60
2023-02-21T06:40:32.278Z,19.10
2023-02-21T06:43:00.793Z,18.71
2023-02-21T06:45:29.548Z,18.35
2023-02-21T06:47:58.620Z,18.17
2023-02-21T06:50:26.832Z,18.16
2023-02-21T06:52:55.312Z,18.20
2023-02-21T06:55:25.491Z,18.18
2023-02-21T06:57:54.121Z,18.00
2023-02-21T07:00:22.348Z,17.75
2023-02-21T07:02:50.678Z,17.54
2023-02-21T07:05:19.256Z,17.33
2023-02-21T07:07:47.900Z,17.12
2023-02-21T07:10:16.962Z,17.08
2023-02-21T07:12:45.838Z,17.04
2023-02-21T07:15:13.943Z,16.94
2023-02-21T07:17:45.399Z,16.79
2023-02-21T07:20:13.525Z,16.68
2023-02-21T07:22:41.808Z,16.57
2023-02-21T07:25:14.603Z,16.49
2023-02-21T07:27:43.041Z,16.46
2023-02-21T07:30:11.906Z,16.51
2023-02-21T07:32:40.241Z,16.62
2023-02-21T07:35:08.880Z,16.78
2023-02-21T07:37:37.260Z,16.98
2023-02-21T07:40:09.344Z,17.04
2023-02-21T07:42:37.756Z,17.03
2023-02-21T07:45:08.623Z,16.99
2023-02-21T07:47:37.794Z,16.92
2023-02-21T07:50:06.981Z,16.80
2023-02-21T07:52:35.087Z,16.78
2023-02-21T07:55:03.240Z,16.73
2023-02-21T12:51:59.707Z,13.54
2023-02-21T12:54:46.365Z,16.60
2023-02-21T12:57:15.693Z,16.95
2023-02-21T13:00:00.410Z,17.02
2023-02-21T13:02:43.025Z,17.00
2023-02-21T13:05:22.469Z,16.96
2023-02-21T13:07:55.239Z,16.91
2023-02-21T13:10:27.890Z,16.86
2023-02-21T13:13:11.453Z,16.83
2023-02-21T13:15:48.157Z,16.72
2023-02-21T13:18:21.379Z,16.59
2023-02-21T13:20:57.921Z,16.45
2023-02-21T13:23:52.019Z,16.32
2023-02-21T13:26:45.062Z,16.17
2023-02-21T13:29:17.612Z,16.16
2023-02-21T13:31:45.512Z,16.30
2023-02-21T13:34:14.293Z,16.41
2023-02-21T13:36:42.510Z,16.45
2023-02-21T13:39:09.378Z,16.48
2023-02-21T13:41:40.372Z,16.52
2023-02-21T13:44:10.307Z,16.55
2023-02-21T13:46:38.051Z,16.51
2023-02-21T13:49:39.177Z,16.51
2023-02-21T13:52:25.898Z,16.48
2023-02-21T13:55:10.877Z,16.38
2023-02-21T13:58:00.522Z,16.28
2023-02-21T14:00:27.406Z,16.21
2023-02-21T14:03:06.973Z,16.17
2023-02-21T14:05:46.532Z,16.13
2023-02-21T14:08:40.371Z,16.06
2023-02-21T14:11:09.858Z,15.98
2023-02-21T14:13:55.858Z,15.93
2023-02-21T14:16:36.486Z,15.92
2023-02-21T14:21:41.419Z,15.84
2023-02-21T14:24:22.571Z,15.83
2023-02-21T14:26:49.235Z,15.79
2023-02-21T14:29:35.861Z,15.77
2023-02-21T14:32:03.463Z,15.71
2023-02-21T14:34:34.714Z,15.65
2023-02-21T14:37:09.569Z,15.63
2023-02-21T14:39:39.682Z,15.59
2023-02-21T14:42:25.545Z,15.47
2023-02-21T14:45:16.074Z,15.40
2023-02-21T14:48:30.032Z,15.45
2023-02-21T14:51:05.771Z,15.48
2023-02-21T14:54:05.988Z,15.35
2023-02-21T14:57:00.084Z,15.21
2023-02-21T14:59:29.704Z,15.01
2023-02-21T15:02:22.724Z,14.83
2023-02-21T15:04:56.494Z,14.68
2023-02-21T15:07:48.373Z,14.53
2023-02-21T15:10:29.969Z,14.48
2023-02-21T15:12:59.978Z,14.49
2023-02-21T15:15:48.265Z,14.45
2023-02-21T15:18:34.346Z,14.36
2023-02-21T15:21:21.311Z,14.31
2023-02-21T15:23:59.368Z,14.26
2023-02-21T15:32:04.403Z,12.53
2023-02-21T15:34:49.492Z,14.20
2023-02-21T15:37:20.822Z,14.35
2023-02-21T15:39:56.206Z,14.38
2023-02-21T15:42:22.971Z,14.41
2023-02-21T15:44:51.733Z,14.51
2023-02-21T15:47:20.548Z,14.60
2023-02-21T15:50:00.025Z,14.62
2023-02-21T15:52:37.551Z,14.60
2023-02-21T15:55:19.982Z,14.61
2023-02-21T15:57:59.748Z,14.60
2023-02-21T16:00:34.581Z,14.55
2023-02-21T16:03:39.323Z,14.54
2023-02-21T16:06:14.026Z,14.73
2023-02-21T16:08:50.841Z,14.88
2023-02-21T16:11:18.440Z,14.94
2023-02-21T16:13:45.227Z,14.92
2023-02-21T16:16:12.904Z,14.82
2023-02-21T16:18:41.162Z,14.77
2023-02-21T16:21:22.369Z,14.68
2023-02-21T16:23:49.392Z,14.61
2023-02-21T16:26:16.339Z,14.63
2023-02-21T16:28:43.631Z,14.63
2023-02-21T16:31:16.133Z,14.56
2023-02-21T16:33:43.886Z,14.49
2023-02-21T16:36:18.934Z,14.41
2023-02-21T16:38:45.693Z,14.32
2023-02-21T16:41:15.661Z,14.26
2023-02-21T16:43:42.789Z,14.22
2023-02-21T16:46:09.733Z,14.20
2023-02-21T16:48:37.396Z,14.23
2023-02-21T16:51:07.298Z,14.25
2023-02-21T16:53:33.992Z,14.21
2023-02-21T16:56:01.817Z,14.17
2023-02-21T16:58:31.653Z,14.13
2023-02-21T17:01:04.514Z,14.11
2023-02-21T17:03:31.479Z,14.09
2023-02-21T17:05:59.333Z,14.05
2023-02-21T17:08:27.201Z,13.98
2023-02-21T17:10:58.741Z,13.93
2023-02-21T17:13:27.144Z,13.96
2023-02-21T17:15:54.811Z,14.02
2023-02-21T17:18:21.856Z,14.00
2023-02-21T17:20:49.101Z,13.90
2023-02-21T17:23:18.035Z,13.82
2023-02-21T17:25:44.852Z,13.78
2023-02-21T17:36:21.085Z,13.81
2023-02-21T17:38:48.150Z,13.85
2023-02-21T17:41:15.240Z,13.87
2023-02-21T17:43:42.358Z,13.83
2023-02-21T17:46:10.632Z,13.78
2023-02-21T17:48:38.652Z,13.76
2023-02-21T17:51:05.553Z,13.71
2023-02-21T17:53:33.375Z,13.69
2023-02-21T17:56:00.249Z,13.65
2023-02-21T17:58:27.690Z,13.56
2023-02-21T18:00:54.972Z,13.56
2023-02-21T18:03:22.969Z,13.58
2023-02-21T18:05:49.932Z,13.60
2023-02-21T18:08:17.188Z,13.56
2023-02-21T18:10:45.832Z,13.50
2023-02-21T18:13:22.371Z,13.44
2023-02-21T18:15:49.346Z,13.35
2023-02-21T18:18:18.104Z,13.27
2023-02-21T18:20:45.529Z,13.23
2023-02-21T18:23:13.323Z,13.19
2023-02-21T18:25:40.681Z,13.29
2023-02-21T18:28:08.037Z,13.41
2023-02-21T18:30:35.418Z,13.42
2023-02-21T18:33:02.459Z,13.38
2023-02-21T18:35:33.608Z,13.35
2023-02-21T18:38:00.635Z,13.29
2023-02-21T18:40:43.955Z,13.23
2023-02-21T18:43:19.245Z,13.18
2023-02-21T18:45:47.486Z,13.12
2023-02-21T18:48:14.830Z,13.06
2023-02-21T18:50:42.000Z,13.09
2023-02-21T18:53:09.495Z,13.15
2023-02-21T18:55:36.508Z,13.12
2023-02-21T18:58:03.760Z,13.07
2023-02-21T19:00:33.057Z,13.05
2023-02-21T19:03:00.719Z,13.02
2023-02-21T19:05:27.363Z,12.96
2023-02-21T19:07:54.548Z,12.91
2023-02-21T19:10:22.684Z,12.86
2023-02-21T19:12:49.745Z,12.86
2023-02-21T19:15:16.905Z,12.83
2023-02-21T19:17:44.038Z,12.79
2023-02-21T19:20:11.943Z,12.83
2023-02-21T19:22:38.830Z,12.90
2023-02-21T19:25:06.112Z,12.88
2023-02-21T19:27:33.170Z,12.80
2023-02-21T19:29:59.995Z,12.73
2023-02-21T19:32:28.978Z,12.64
2023-02-21T19:34:56.147Z,12.56
2023-02-21T19:37:23.680Z,12.50
2023-02-21T19:39:50.614Z,12.45
2023-02-21T19:42:17.905Z,12.42
2023-02-21T19:44:44.748Z,12.40
2023-02-21T19:47:11.530Z,12.36
2023-02-21T19:49:38.646Z,12.41
2023-02-21T19:52:06.099Z,12.50
2023-02-21T19:54:34.065Z,12.54
2023-02-21T19:57:01.073Z,12.53
2023-02-21T19:59:28.788Z,12.51
2023-02-21T20:01:55.836Z,12.48
2023-02-21T20:04:23.049Z,12.44
2023-02-21T20:06:50.329Z,12.39
2023-02-21T20:09:17.482Z,12.34
2023-02-21T20:11:44.523Z,12.31
2023-02-21T20:14:11.592Z,12.26
2023-02-21T20:16:39.886Z,12.30
2023-02-21T20:19:08.821Z,12.39
2023-02-21T20:21:36.714Z,12.41
2023-02-21T20:24:06.492Z,12.37
2023-02-21T20:26:34.229Z,12.32
2023-02-21T20:29:01.235Z,12.26
2023-02-21T20:31:31.722Z,12.20
2023-02-21T20:34:02.532Z,12.17
2023-02-21T20:36:34.693Z,12.13
2023-02-21T20:39:02.016Z,12.09
2023-02-21T20:41:30.549Z,12.07
2023-02-21T20:43:58.095Z,12.05
2023-02-21T20:46:24.896Z,12.13
2023-02-21T20:48:51.889Z,12.24
2023-02-21T20:51:34.018Z,12.26
2023-02-21T20:54:01.217Z,12.24
2023-02-21T20:56:41.929Z,12.20
2023-02-21T20:59:15.307Z,12.14
2023-02-21T21:01:47.643Z,12.09
2023-02-21T21:04:22.043Z,12.07
2023-02-21T21:06:48.747Z,12.06
2023-02-21T21:09:17.252Z,12.04
2023-02-21T21:11:44.352Z,12.01
2023-02-21T21:14:16.123Z,12.00
2023-02-21T21:16:43.596Z,11.99
2023-02-21T21:19:11.090Z,12.08
2023-02-21T21:21:39.014Z,12.19
2023-02-21T21:24:06.458Z,12.23
2023-02-21T21:26:33.562Z,12.20
2023-02-21T21:29:01.432Z,12.16
2023-02-21T21:31:30.268Z,12.14
2023-02-21T21:33:57.080Z,12.14
2023-02-21T21:36:25.854Z,12.15
2023-02-21T21:38:52.871Z,12.15
2023-02-21T21:41:19.716Z,12.11
2023-02-21T21:43:47.724Z,12.08
2023-02-21T21:46:14.380Z,12.06
2023-02-21T21:48:42.063Z,12.04
2023-02-21T21:51:08.872Z,12.01
2023-02-21T21:53:39.328Z,11.99
2023-02-21T21:56:07.479Z,12.05
2023-02-21T21:58:34.615Z,12.13
2023-02-21T22:01:01.748Z,12.06
2023-02-21T22:03:28.997Z,11.97
2023-02-21T22:05:59.929Z,11.89
2023-02-21T22:08:27.559Z,11.84
2023-02-21T22:10:54.505Z,11.83
2023-02-21T22:13:21.489Z,11.74
2023-02-21T22:15:52.035Z,11.65
2023-02-21T22:18:19.478Z,11.54
2023-02-21T22:20:49.903Z,11.40
2023-02-21T22:23:20.548Z,11.28
2023-02-21T22:25:47.894Z,11.19
2023-02-21T22:28:15.566Z,10.98
2023-02-21T22:30:42.476Z,10.71
2023-02-21T22:33:12.781Z,10.51
2023-02-21T22:35:40.800Z,10.39
2023-02-21T22:38:13.654Z,10.44
2023-02-21T22:40:41.526Z,10.44
2023-02-21T22:43:08.421Z,10.40
2023-02-21T22:45:35.400Z,10.35
2023-02-21T22:48:04.998Z,10.35
2023-02-21T22:50:36.943Z,10.38
2023-02-21T22:53:07.588Z,10.54
2023-02-21T22:55:36.340Z,10.69
2023-02-21T22:58:05.224Z,10.76
2023-02-21T23:00:33.007Z,10.82
2023-02-21T23:03:15.166Z,10.87
2023-02-21T23:05:43.916Z,10.89
2023-02-21T23:08:15.742Z,10.87
2023-02-21T23:10:42.551Z,10.89
2023-02-21T23:13:15.696Z,10.95
2023-02-21T23:15:43.217Z,11.07
2023-02-21T23:18:19.645Z,11.22
2023-02-21T23:20:47.888Z,11.28
2023-02-21T23:23:15.128Z,11.33
2023-02-21T23:25:41.787Z,11.34
2023-02-21T23:28:11.485Z,11.35
2023-02-21T23:30:43.017Z,11.35
2023-02-21T23:33:22.357Z,11.33
2023-02-21T23:35:50.707Z,11.31
2023-02-21T23:38:22.448Z,11.28
2023-02-21T23:40:57.618Z,11.34
2023-02-21T23:43:30.172Z,11.36
2023-02-21T23:45:57.321Z,11.32
2023-02-21T23:48:24.536Z,11.31
2023-02-21T23:50:51.433Z,11.28
2023-02-21T23:53:19.568Z,11.23
2023-02-21T23:55:46.996Z,11.16
2023-02-21T23:58:16.292Z,11.03
